Time;durP1;ratioP1;P1;durP2;ratioP2;P2;SDS_P1;SDS_P2;PMS_P1;PMS_P2;Temp;Humidity;BMP_temperature;BMP_pressure;BME280_temperature;BME280_humidity;BME280_pressure;Samples;Min_cycle;Max_cycle;Signal;HPM_P1;HPM_P2
2023/04/19 00:01:23;;;;;;;11.48;6.90;;;9.80;95.90;;;;;;5073831;28;20048;-71
2023/04/19 00:03:49;;;;;;;7.53;6.10;;;9.70;95.90;;;;;;5073787;28;20044;-71
2023/04/19 00:06:15;;;;;;;10.93;6.40;;;9.70;96.10;;;;;;5074090;28;20098;-71
2023/04/19 00:08:41;;;;;;;9.13;6.60;;;9.80;96.10;;;;;;5074050;28;20055;-71
2023/04/19 00:11:08;;;;;;;8.27;6.35;;;9.70;96.40;;;;;;5074858;28;20502;-71
2023/04/19 00:13:34;;;;;;;11.93;6.20;;;9.60;96.40;;;;;;5073703;28;20040;-71
2023/04/19 00:15:59;;;;;;;10.82;6.75;;;9.70;96.50;;;;;;5073575;28;20093;-71
2023/04/19 00:18:25;;;;;;;10.45;6.50;;;9.60;96.40;;;;;;5056879;28;20036;-71
2023/04/19 00:20:51;;;;;;;12.27;6.43;;;9.60;96.50;;;;;;5073491;28;20078;-71
2023/04/19 00:23:16;;;;;;;10.30;6.93;;;9.60;96.50;;;;;;5073366;28;20048;-71
2023/04/19 00:25:45;;;;;;;8.77;5.85;;;9.60;96.50;;;;;;5073444;28;20040;-72
2023/04/19 00:28:10;;;;;;;8.10;6.35;;;9.50;96.60;;;;;;5074645;28;20040;-72
2023/04/19 00:30:36;;;;;;;10.85;6.22;;;9.50;96.70;;;;;;5073370;28;20040;-72
2023/04/19 00:33:01;;;;;;;8.15;6.32;;;9.50;96.60;;;;;;5073216;28;20047;-71
2023/04/19 00:35:27;;;;;;;8.93;6.47;;;9.40;96.60;;;;;;5073509;28;20032;-71
2023/04/19 00:37:53;;;;;;;10.30;5.82;;;9.40;96.60;;;;;;5073479;28;20489;-71
2023/04/19 00:40:18;;;;;;;8.43;6.10;;;9.40;96.70;;;;;;5073389;28;20043;-71
2023/04/19 00:42:44;;;;;;;8.65;5.80;;;9.40;96.70;;;;;;5074240;28;20528;-71
2023/04/19 00:45:10;;;;;;;9.63;5.80;;;9.30;96.90;;;;;;5074508;28;20036;-71
2023/04/19 00:47:37;;;;;;;8.48;6.40;;;9.40;96.60;;;;;;5073250;28;20131;-71
2023/04/19 00:50:03;;;;;;;10.90;6.82;;;9.30;96.60;;;;;;5072221;28;20045;-71
2023/04/19 00:52:29;;;;;;;7.97;5.68;;;9.30;96.50;;;;;;5073037;28;20557;-71
2023/04/19 00:54:56;;;;;;;7.75;5.93;;;9.30;96.40;;;;;;5073056;28;20048;-71
2023/04/19 00:57:23;;;;;;;9.20;6.55;;;9.30;96.30;;;;;;5073283;28;20044;-71
2023/04/19 00:59:50;;;;;;;9.20;6.10;;;9.20;96.30;;;;;;5072749;28;20508;-71
2023/04/19 01:02:15;;;;;;;10.07;6.10;;;9.20;96.20;;;;;;5072607;28;20040;-70
2023/04/19 01:04:41;;;;;;;9.48;6.20;;;9.20;96.30;;;;;;5055935;28;20167;-71
2023/04/19 01:07:07;;;;;;;7.88;6.35;;;9.20;96.30;;;;;;5072882;28;20080;-71
2023/04/19 01:09:33;;;;;;;11.23;7.07;;;9.20;96.30;;;;;;5072556;28;20065;-71
2023/04/19 01:12:01;;;;;;;10.52;7.60;;;9.20;96.20;;;;;;5072707;28;20040;-71
2023/04/19 01:14:26;;;;;;;10.55;7.22;;;9.20;96.10;;;;;;5072437;28;20048;-71
2023/04/19 01:16:53;;;;;;;11.40;7.97;;;9.10;96.10;;;;;;5072407;28;20052;-71
2023/04/19 01:19:18;;;;;;;9.27;6.70;;;9.10;96.10;;;;;;5072645;28;20082;-71
2023/04/19 01:21:45;;;;;;;10.60;7.45;;;9.10;96.00;;;;;;5072546;28;20437;-71
2023/04/19 01:24:10;;;;;;;10.38;6.90;;;9.10;96.00;;;;;;5072227;28;20036;-71
2023/04/19 01:26:36;;;;;;;8.73;6.32;;;9.10;95.90;;;;;;5072273;28;20037;-71
2023/04/19 01:29:02;;;;;;;12.02;6.75;;;9.00;95.80;;;;;;5072605;28;20032;-71
2023/04/19 01:31:28;;;;;;;11.70;7.30;;;9.00;95.70;;;;;;5072144;28;20044;-70
2023/04/19 01:33:53;;;;;;;8.20;6.13;;;9.00;95.50;;;;;;5072178;28;20048;-71
2023/04/19 01:36:19;;;;;;;10.00;6.20;;;8.90;95.40;;;;;;5073421;28;20047;-71
2023/04/19 01:38:46;;;;;;;9.13;5.63;;;8.90;95.30;;;;;;5073664;28;20041;-71
2023/04/19 01:41:12;;;;;;;9.95;6.00;;;8.90;95.40;;;;;;5072024;28;20079;-70
2023/04/19 01:43:38;;;;;;;9.80;6.35;;;8.90;95.30;;;;;;5071982;28;20119;-71
2023/04/19 01:46:04;;;;;;;10.75;6.75;;;8.90;95.20;;;;;;5072261;28;20049;-71
2023/04/19 01:48:29;;;;;;;9.68;6.50;;;8.80;95.20;;;;;;5072008;28;20048;-71
2023/04/19 01:50:55;;;;;;;11.85;6.82;;;8.80;95.20;;;;;;5071943;28;20044;-71
2023/04/19 01:53:20;;;;;;;9.68;6.85;;;8.80;95.20;;;;;;5071999;28;20040;-71
2023/04/19 01:55:46;;;;;;;8.90;6.40;;;8.70;95.10;;;;;;5071999;28;20040;-71
2023/04/19 01:58:14;;;;;;;9.30;6.57;;;8.70;95.20;;;;;;5072078;28;20067;-71
2023/04/19 02:00:40;;;;;;;10.52;6.90;;;8.70;95.20;;;;;;5071552;28;20049;-71
2023/04/19 02:03:06;;;;;;;15.13;6.93;;;8.60;95.20;;;;;;5071721;28;20043;-71
2023/04/19 02:05:31;;;;;;;11.95;7.07;;;8.50;95.30;;;;;;5071829;28;20036;-71
2023/04/19 02:07:57;;;;;;;10.02;7.03;;;8.50;95.40;;;;;;5071780;28;20055;-71
2023/04/19 02:10:23;;;;;;;9.82;7.25;;;8.50;95.50;;;;;;5055091;28;20032;-71
2023/04/19 02:12:48;;;;;;;8.68;6.70;;;8.40;95.70;;;;;;5071942;28;20068;-71
2023/04/19 02:15:14;;;;;;;9.10;6.95;;;8.40;95.90;;;;;;5071724;28;20571;-71
2023/04/19 02:17:39;;;;;;;9.38;7.47;;;8.30;96.30;;;;;;5071701;28;20041;-71
2023/04/19 02:20:07;;;;;;;10.63;8.02;;;8.30;96.60;;;;;;5071694;28;20063;-71
2023/04/19 02:22:33;;;;;;;12.38;8.15;;;8.20;96.80;;;;;;5071581;28;20109;-70
2023/04/19 02:24:59;;;;;;;12.43;8.77;;;8.20;97.00;;;;;;5071603;28;20041;-70
2023/04/19 02:27:25;;;;;;;12.30;8.80;;;8.20;97.40;;;;;;5071903;28;20041;-70
2023/04/19 02:29:51;;;;;;;11.23;8.27;;;8.10;97.50;;;;;;5071577;28;20500;-71
2023/04/19 02:32:16;;;;;;;14.20;8.85;;;8.10;97.80;;;;;;5072219;28;20076;-71
2023/04/19 02:34:42;;;;;;;13.63;8.82;;;8.10;98.00;;;;;;5071543;28;20458;-71
2023/04/19 02:37:07;;;;;;;14.25;8.60;;;8.00;98.10;;;;;;5071757;28;20047;-71
2023/04/19 02:39:33;;;;;;;15.13;9.00;;;8.00;98.20;;;;;;5071495;28;20452;-71
2023/04/19 02:41:59;;;;;;;14.05;9.40;;;8.00;98.30;;;;;;5071388;28;20041;-70
2023/04/19 02:44:26;;;;;;;12.32;9.27;;;7.90;98.40;;;;;;5071359;28;20405;-70
2023/04/19 02:46:52;;;;;;;11.52;8.70;;;7.90;98.50;;;;;;5071649;28;20044;-70
2023/04/19 02:49:18;;;;;;;12.75;8.48;;;7.90;98.60;;;;;;5071382;28;20052;-70
2023/04/19 02:51:44;;;;;;;14.85;9.75;;;7.90;98.60;;;;;;5071567;28;20059;-70
2023/04/19 02:54:11;;;;;;;11.85;8.98;;;7.90;99.00;;;;;;5072852;28;20485;-71
2023/04/19 02:56:37;;;;;;;14.88;9.73;;;7.80;98.70;;;;;;5071601;28;20054;-71
2023/04/19 02:59:03;;;;;;;12.95;8.70;;;7.80;98.80;;;;;;5071240;28;20131;-71
2023/04/19 03:01:30;;;;;;;12.65;8.52;;;7.80;98.80;;;;;;5071182;28;20404;-71
2023/04/19 03:03:55;;;;;;;13.00;8.77;;;7.80;98.90;;;;;;5071156;28;20036;-71
2023/04/19 03:06:21;;;;;;;12.95;8.55;;;7.70;98.90;;;;;;5071174;28;20045;-71
2023/04/19 03:08:47;;;;;;;13.38;9.27;;;7.70;99.00;;;;;;5072988;28;20037;-71
2023/04/19 03:11:16;;;;;;;15.27;9.10;;;7.70;98.90;;;;;;5071116;28;20040;-71
2023/04/19 03:13:42;;;;;;;12.35;8.60;;;7.70;99.00;;;;;;5073057;28;20071;-71
2023/04/19 03:16:08;;;;;;;10.85;8.65;;;7.60;98.90;;;;;;5074730;28;20413;-70
2023/04/19 03:18:33;;;;;;;12.57;9.00;;;7.60;98.90;;;;;;5074963;28;20141;-71
2023/04/19 03:20:59;;;;;;;14.55;8.50;;;7.60;98.90;;;;;;5074600;28;20509;-71
2023/04/19 03:23:25;;;;;;;11.48;8.65;;;7.60;98.80;;;;;;5074557;28;20051;-71
2023/04/19 03:25:51;;;;;;;11.15;8.02;;;7.60;98.80;;;;;;5074550;28;20516;-71
2023/04/19 03:28:16;;;;;;;12.65;8.40;;;7.50;98.70;;;;;;5076346;28;20045;-71
2023/04/19 03:30:42;;;;;;;11.05;8.38;;;7.50;98.50;;;;;;5074739;28;20041;-71
2023/04/19 03:33:08;;;;;;;14.23;8.25;;;7.50;98.50;;;;;;5074363;28;20037;-71
2023/04/19 03:35:33;;;;;;;12.00;8.20;;;7.50;98.40;;;;;;5074402;28;20117;-71
2023/04/19 03:37:59;;;;;;;12.85;7.97;;;7.40;98.30;;;;;;5074635;28;20090;-71
2023/04/19 03:40:24;;;;;;;11.15;7.78;;;7.40;98.10;;;;;;5074314;28;20036;-71
2023/04/19 03:42:50;;;;;;;14.05;7.63;;;7.40;98.00;;;;;;5074481;28;20068;-71
2023/04/19 03:45:15;;;;;;;10.90;8.00;;;7.40;97.80;;;;;;5075405;28;20558;-71
2023/04/19 03:47:41;;;;;;;12.65;7.50;;;7.40;97.70;;;;;;5074466;28;20107;-71
2023/04/19 03:50:07;;;;;;;12.50;7.43;;;7.30;97.50;;;;;;5074140;28;20036;-71
2023/04/19 03:52:33;;;;;;;11.73;7.90;;;7.30;97.30;;;;;;5074033;28;20033;-71
2023/04/19 03:54:58;;;;;;;10.10;7.18;;;7.30;97.20;;;;;;5074048;28;20096;-71
2023/04/19 03:57:24;;;;;;;9.50;6.78;;;7.30;97.10;;;;;;5073963;28;20040;-71
2023/04/19 03:59:50;;;;;;;12.25;6.80;;;7.20;96.80;;;;;;5074020;28;20045;-71
2023/04/19 04:02:15;;;;;;;12.60;7.70;;;7.20;96.70;;;;;;5073832;28;20047;-70
2023/04/19 04:04:41;;;;;;;10.95;7.13;;;7.20;96.60;;;;;;5073827;28;20032;-71
2023/04/19 04:07:06;;;;;;;9.93;6.30;;;7.20;96.50;;;;;;5074102;28;20044;-71
2023/04/19 04:09:32;;;;;;;10.05;7.30;;;7.10;96.40;;;;;;5073774;28;20119;-71
2023/04/19 04:11:58;;;;;;;8.85;6.93;;;7.10;96.30;;;;;;5073633;28;20047;-71
2023/04/19 04:14:23;;;;;;;11.95;6.80;;;7.10;96.20;;;;;;5075203;28;20123;-71
2023/04/19 04:16:49;;;;;;;10.63;6.28;;;7.10;96.10;;;;;;5073910;28;20076;-71
2023/04/19 04:19:15;;;;;;;11.05;6.60;;;7.10;96.00;;;;;;5073860;28;20485;-71
2023/04/19 04:21:40;;;;;;;10.20;6.43;;;7.00;95.90;;;;;;5073473;28;20094;-71
2023/04/19 04:24:06;;;;;;;8.80;6.38;;;7.00;95.70;;;;;;5073221;28;20055;-71
2023/04/19 04:26:38;;;;;;;10.82;6.60;;;7.00;95.70;;;;;;5073699;28;20044;-71
2023/04/19 04:29:05;;;;;;;12.02;6.90;;;6.90;95.60;;;;;;5073460;28;20041;-71
2023/04/19 04:31:30;;;;;;;11.60;6.43;;;6.90;95.70;;;;;;5074783;28;20111;-71
2023/04/19 04:33:56;;;;;;;12.15;6.90;;;6.90;95.70;;;;;;5073289;28;20075;-71
2023/04/19 04:36:22;;;;;;;9.13;6.60;;;6.90;95.70;;;;;;5073240;28;20128;-71
2023/04/19 04:38:48;;;;;;;9.57;6.65;;;6.80;95.70;;;;;;5073156;28;20052;-71
2023/04/19 04:41:13;;;;;;;9.93;6.00;;;6.80;95.80;;;;;;5073349;28;20052;-70
2023/04/19 04:43:39;;;;;;;8.93;6.13;;;6.80;95.70;;;;;;5072969;28;20484;-70
2023/04/19 04:46:05;;;;;;;11.80;6.57;;;6.80;95.80;;;;;;5073043;28;20119;-71
2023/04/19 04:48:30;;;;;;;9.68;6.75;;;6.70;95.80;;;;;;5074500;28;20166;-71
2023/04/19 04:50:57;;;;;;;8.98;6.68;;;6.70;95.90;;;;;;5072945;28;20047;-71
2023/04/19 04:53:25;;;;;;;10.50;6.85;;;6.70;95.90;;;;;;5072827;28;20060;-71
2023/04/19 04:55:53;;;;;;;11.07;6.43;;;6.70;95.90;;;;;;5073105;28;20041;-71
2023/04/19 04:58:18;;;;;;;12.35;6.88;;;6.70;95.90;;;;;;5072930;28;20041;-71
2023/04/19 05:00:44;;;;;;;10.73;6.80;;;6.70;95.80;;;;;;5072732;28;20036;-71
2023/04/19 05:03:10;;;;;;;9.45;7.07;;;6.70;95.80;;;;;;5072602;28;20127;-71
2023/04/19 05:05:35;;;;;;;9.10;6.30;;;6.70;95.70;;;;;;5072953;28;20132;-71
2023/04/19 05:08:01;;;;;;;9.70;6.03;;;6.70;95.70;;;;;;5072891;28;20515;-71
2023/04/19 05:10:27;;;;;;;8.60;6.55;;;6.70;95.60;;;;;;5072587;28;20468;-71
2023/04/19 05:12:52;;;;;;;9.20;6.03;;;6.70;95.40;;;;;;5072411;28;20090;-71
2023/04/19 05:15:18;;;;;;;9.10;5.80;;;6.70;95.30;;;;;;5072734;28;20048;-71
2023/04/19 05:17:43;;;;;;;9.45;5.80;;;6.70;95.20;;;;;;5072704;28;20052;-71
2023/04/19 05:20:09;;;;;;;9.10;5.65;;;6.70;95.00;;;;;;5072402;28;20408;-71
2023/04/19 05:22:35;;;;;;;8.10;5.20;;;6.70;94.90;;;;;;5072246;28;20127;-71
2023/04/19 05:25:01;;;;;;;9.40;5.20;;;6.70;94.80;;;;;;5072260;28;20037;-71
2023/04/19 05:27:26;;;;;;;7.85;5.57;;;6.70;94.60;;;;;;5072272;28;20040;-71
2023/04/19 05:29:52;;;;;;;6.95;5.00;;;6.70;94.50;;;;;;5073493;28;20127;-71
2023/04/19 05:32:18;;;;;;;7.90;5.53;;;6.80;94.40;;;;;;5072163;28;20072;-71
2023/04/19 05:34:43;;;;;;;9.73;5.60;;;6.80;94.40;;;;;;5072167;28;20040;-70
2023/04/19 05:37:09;;;;;;;8.60;5.32;;;6.80;94.30;;;;;;5071597;28;20120;-70
2023/04/19 05:39:35;;;;;;;8.65;5.25;;;6.80;94.30;;;;;;5072154;28;20044;-71
2023/04/19 05:42:00;;;;;;;10.40;5.20;;;6.90;94.20;;;;;;5072015;28;20047;-71
2023/04/19 05:44:26;;;;;;;11.02;5.20;;;6.80;93.90;;;;;;5071992;28;20033;-71
2023/04/19 05:46:51;;;;;;;7.03;4.72;;;6.90;93.90;;;;;;5072107;28;20048;-71
2023/04/19 05:49:17;;;;;;;10.35;5.10;;;6.90;93.70;;;;;;5072011;28;20051;-71
2023/04/19 05:51:42;;;;;;;10.27;4.75;;;6.90;93.60;;;;;;5071907;28;20040;-71
2023/04/19 05:54:11;;;;;;;9.18;4.85;;;7.00;93.40;;;;;;5071936;28;20128;-71
2023/04/19 05:56:37;;;;;;;7.07;4.32;;;7.00;93.10;;;;;;5071885;28;20044;-71
2023/04/19 05:59:03;;;;;;;8.85;4.85;;;7.00;92.80;;;;;;5072091;28;20045;-71
2023/04/19 06:01:29;;;;;;;7.32;4.43;;;7.00;92.40;;;;;;5071811;28;20128;-71
2023/04/19 06:03:54;;;;;;;6.70;3.88;;;7.10;92.10;;;;;;5071798;28;20044;-71
2023/04/19 06:06:23;;;;;;;8.80;4.43;;;7.10;92.10;;;;;;5071846;28;20045;-71
2023/04/19 06:08:49;;;;;;;7.95;4.10;;;7.20;91.70;;;;;;5073329;28;20086;-71
2023/04/19 06:11:15;;;;;;;6.38;4.50;;;7.20;91.60;;;;;;5071905;28;20041;-73
2023/04/19 06:13:42;;;;;;;6.18;3.92;;;7.30;91.50;;;;;;5073285;28;20048;-71
2023/04/19 06:16:08;;;;;;;7.65;3.60;;;7.40;91.30;;;;;;5073233;28;20044;-71
2023/04/19 06:18:33;;;;;;;10.80;4.18;;;7.50;90.90;;;;;;5071720;28;20052;-71
2023/04/19 06:20:59;;;;;;;8.95;4.38;;;7.50;90.70;;;;;;5071632;28;20037;-71
2023/04/19 06:23:25;;;;;;;6.03;3.45;;;7.60;90.60;;;;;;5071856;28;20083;-71
2023/04/19 06:25:51;;;;;;;9.25;3.67;;;7.60;90.50;;;;;;5071901;28;20051;-71
2023/04/19 06:28:17;;;;;;;7.30;3.72;;;7.60;90.30;;;;;;5071630;28;20040;-71
2023/04/19 06:30:43;;;;;;;9.68;3.63;;;7.70;90.30;;;;;;5071574;28;20054;-71
2023/04/19 06:33:08;;;;;;;6.72;3.47;;;7.80;90.00;;;;;;5071496;28;20037;-70
2023/04/19 06:35:34;;;;;;;7.13;4.00;;;7.80;89.50;;;;;;5072747;28;20048;-71
2023/04/19 06:37:59;;;;;;;6.90;3.47;;;7.80;88.70;;;;;;5071358;28;20131;-71
2023/04/19 06:40:27;;;;;;;6.35;3.45;;;7.90;88.40;;;;;;5071372;28;20048;-71
2023/04/19 06:42:53;;;;;;;6.53;3.25;;;8.00;88.30;;;;;;5072549;28;20556;-71
2023/04/19 06:45:18;;;;;;;7.22;3.40;;;8.00;87.80;;;;;;5072774;28;20127;-72
2023/04/19 06:47:44;;;;;;;5.82;3.35;;;8.00;87.80;;;;;;5071968;28;20041;-72
2023/04/19 06:50:10;;;;;;;7.18;3.38;;;8.10;87.30;;;;;;5075300;28;20048;-71
2023/04/19 06:52:36;;;;;;;5.70;3.20;;;8.20;86.70;;;;;;5075203;28;20044;-71
2023/04/19 06:55:02;;;;;;;7.22;3.30;;;8.20;86.20;;;;;;5076403;28;20044;-71
2023/04/19 06:57:27;;;;;;;5.72;3.22;;;8.30;85.60;;;;;;5075042;28;20048;-71
2023/04/19 06:59:54;;;;;;;5.32;3.05;;;8.30;85.40;;;;;;5075072;28;20098;-71
2023/04/19 07:02:20;;;;;;;6.05;2.75;;;8.40;85.30;;;;;;5074966;28;20044;-70
2023/04/19 07:04:46;;;;;;;6.07;2.60;;;8.40;84.50;;;;;;5074921;28;20055;-71
2023/04/19 07:07:12;;;;;;;4.50;2.47;;;8.50;84.40;;;;;;5074917;28;20102;-71
2023/04/19 07:09:38;;;;;;;4.13;2.55;;;8.60;83.80;;;;;;5074922;28;20044;-71
2023/04/19 07:12:05;;;;;;;4.65;2.90;;;8.60;83.50;;;;;;5075015;28;20045;-71
2023/04/19 07:14:31;;;;;;;5.00;2.42;;;8.70;82.80;;;;;;5074811;28;20048;-71
2023/04/19 07:16:56;;;;;;;3.63;2.13;;;8.80;82.10;;;;;;5074748;28;20043;-71
2023/04/19 07:19:22;;;;;;;5.63;2.20;;;8.90;81.70;;;;;;5074710;28;20043;-71
2023/04/19 07:21:48;;;;;;;6.13;2.03;;;9.00;81.90;;;;;;5074606;28;20124;-71
2023/04/19 07:24:15;;;;;;;3.22;1.83;;;9.10;80.90;;;;;;5057882;28;20040;-70
2023/04/19 07:26:41;;;;;;;6.93;2.50;;;9.10;80.20;;;;;;5074578;28;20047;-71
2023/04/19 07:29:07;;;;;;;4.55;1.83;;;9.20;80.00;;;;;;5074563;28;20043;-71
2023/04/19 07:31:32;;;;;;;4.95;2.05;;;9.30;79.10;;;;;;5074461;28;20045;-71
2023/04/19 07:33:58;;;;;;;3.08;1.80;;;9.40;78.50;;;;;;5074475;28;20044;-71
2023/04/19 07:36:23;;;;;;;3.97;2.13;;;9.50;78.10;;;;;;5074484;28;20048;-71
2023/04/19 07:38:49;;;;;;;5.18;2.58;;;9.60;78.70;;;;;;5074405;28;20032;-72
2023/04/19 07:41:15;;;;;;;3.13;1.75;;;9.70;78.70;;;;;;5074561;28;20044;-71
2023/04/19 07:43:40;;;;;;;3.78;2.00;;;9.70;77.90;;;;;;5074164;28;20045;-71
2023/04/19 07:46:10;;;;;;;5.25;2.15;;;9.80;77.20;;;;;;5074253;28;20094;-71
2023/04/19 07:48:37;;;;;;;4.30;2.15;;;10.00;76.70;;;;;;5074227;28;20127;-71
2023/04/19 07:51:13;;;;;;;7.40;2.42;;;10.00;76.10;;;;;;5074250;28;20044;-71
2023/04/19 07:53:40;;;;;;;3.78;2.13;;;10.10;75.10;;;;;;5074102;28;20051;-71
2023/04/19 07:56:07;;;;;;;4.15;1.73;;;10.10;74.20;;;;;;5074048;28;20554;-71
2023/04/19 07:58:33;;;;;;;6.15;1.60;;;10.20;74.00;;;;;;5073505;28;20102;-71
2023/04/19 08:00:58;;;;;;;4.50;1.80;;;10.30;73.60;;;;;;5075368;28;20048;-71
2023/04/19 08:03:24;;;;;;;4.43;1.90;;;10.40;72.50;;;;;;5074104;28;20041;-71
2023/04/19 08:05:50;;;;;;;7.30;2.17;;;10.50;72.10;;;;;;5073903;28;20405;-71
2023/04/19 08:08:15;;;;;;;4.53;2.40;;;10.70;72.40;;;;;;5073842;28;20040;-71
2023/04/19 08:10:42;;;;;;;3.85;1.90;;;10.80;71.60;;;;;;5074028;28;20047;-72
2023/04/19 08:13:08;;;;;;;4.30;2.13;;;10.90;70.30;;;;;;5073651;28;20119;-71
2023/04/19 08:15:34;;;;;;;5.93;2.10;;;11.00;69.90;;;;;;5074007;28;20075;-71
2023/04/19 08:18:00;;;;;;;4.93;1.92;;;11.10;69.40;;;;;;5073591;28;20408;-71
2023/04/19 08:20:26;;;;;;;5.53;2.00;;;11.20;69.50;;;;;;5073859;28;20050;-72
2023/04/19 08:22:53;;;;;;;5.20;2.00;;;11.30;70.10;;;;;;5073713;28;20127;-71
2023/04/19 08:25:18;;;;;;;5.85;2.22;;;11.50;68.40;;;;;;5073427;28;20044;-71
2023/04/19 08:27:44;;;;;;;4.50;2.30;;;11.60;68.40;;;;;;5073747;28;20040;-71
2023/04/19 08:30:10;;;;;;;5.90;2.38;;;11.70;68.20;;;;;;5073449;28;20525;-71
2023/04/19 08:32:36;;;;;;;5.70;2.20;;;11.90;67.50;;;;;;5073267;28;20040;-71
2023/04/19 08:35:03;;;;;;;4.72;2.45;;;12.00;66.30;;;;;;5074589;28;20091;-72
2023/04/19 08:37:28;;;;;;;5.13;2.08;;;12.10;66.70;;;;;;5073529;28;20044;-72
2023/04/19 08:39:54;;;;;;;3.78;2.30;;;12.10;65.20;;;;;;5073416;28;20048;-72
2023/04/19 08:42:20;;;;;;;4.93;1.98;;;12.30;65.40;;;;;;5074558;28;20400;-71
2023/04/19 08:44:46;;;;;;;4.93;1.90;;;12.30;65.30;;;;;;5073013;28;20047;-70
2023/04/19 08:47:15;;;;;;;4.88;2.25;;;12.40;64.20;;;;;;5073068;28;20041;-72
2023/04/19 08:49:44;;;;;;;3.38;1.90;;;12.50;63.80;;;;;;5072990;28;20041;-72
2023/04/19 08:52:12;;;;;;;3.85;1.80;;;12.60;63.30;;;;;;5073123;28;20048;-71
2023/04/19 08:54:38;;;;;;;6.65;2.05;;;12.60;62.70;;;;;;5073169;28;20044;-71
2023/04/19 08:57:05;;;;;;;4.65;1.90;;;12.70;63.20;;;;;;5073016;28;20090;-71
2023/04/19 08:59:30;;;;;;;4.63;1.77;;;12.90;61.50;;;;;;5072817;28;20051;-72
2023/04/19 09:02:02;;;;;;;3.15;1.80;;;13.10;61.30;;;;;;5072673;28;20044;-72
2023/04/19 09:04:28;;;;;;;3.78;1.77;;;13.20;60.80;;;;;;5072682;28;20041;-72
2023/04/19 09:06:54;;;;;;;3.83;1.67;;;13.30;60.70;;;;;;5073946;28;20094;-72
2023/04/19 09:09:26;;;;;;;4.45;2.10;;;13.40;60.50;;;;;;5072983;28;20068;-72
2023/04/19 09:11:52;;;;;;;2.78;1.52;;;13.60;59.30;;;;;;5071657;28;20461;-72
2023/04/19 09:14:20;;;;;;;4.07;1.50;;;13.70;59.10;;;;;;5072545;28;20094;-72
2023/04/19 09:16:46;;;;;;;7.75;1.80;;;13.70;58.10;;;;;;5072747;28;20139;-72
2023/04/19 09:19:12;;;;;;;4.75;1.63;;;13.80;58.10;;;;;;5073963;28;20524;-72
2023/04/19 09:21:38;;;;;;;4.32;1.35;;;13.90;58.70;;;;;;5072513;28;20040;-72
2023/04/19 09:24:05;;;;;;;3.25;1.40;;;14.10;58.60;;;;;;5072327;28;20040;-72
2023/04/19 09:26:31;;;;;;;3.40;1.80;;;14.20;57.60;;;;;;5072344;28;20040;-71
2023/04/19 09:29:01;;;;;;;4.70;1.40;;;14.30;57.10;;;;;;5072548;28;20127;-72
2023/04/19 09:31:31;;;;;;;6.32;2.10;;;14.40;56.90;;;;;;5072221;28;20040;-72
2023/04/19 09:34:10;;;;;;;4.18;1.75;;;14.40;54.90;;;;;;5072256;28;20119;-73
2023/04/19 09:36:36;;;;;;;3.95;1.55;;;14.40;54.10;;;;;;5072406;28;20048;-72
2023/04/19 09:39:02;;;;;;;5.45;1.50;;;14.60;54.10;;;;;;5072018;28;20093;-72
2023/04/19 09:41:27;;;;;;;3.95;1.52;;;14.70;53.20;;;;;;5072024;28;20044;-72
2023/04/19 09:43:54;;;;;;;2.63;1.60;;;14.80;53.50;;;;;;5072005;28;20044;-72
2023/04/19 09:46:36;;;;;;;2.90;1.80;;;14.90;53.90;;;;;;5072378;28;20044;-72
2023/04/19 09:49:18;;;;;;;3.08;1.30;;;15.00;53.30;;;;;;5072103;28;20038;-72
2023/04/19 09:51:46;;;;;;;4.68;1.40;;;14.90;53.40;;;;;;5072663;28;20097;-72
2023/04/19 09:54:13;;;;;;;3.28;1.30;;;15.10;53.90;;;;;;5071887;28;20044;-72
2023/04/19 09:56:39;;;;;;;6.18;1.40;;;15.30;53.80;;;;;;5072083;28;20052;-72
2023/04/19 09:59:06;;;;;;;2.53;1.25;;;15.50;53.90;;;;;;5071826;28;20048;-72
2023/04/19 10:01:44;;;;;;;3.63;1.35;;;15.70;52.80;;;;;;5071837;28;20123;-72
2023/04/19 10:04:12;;;;;;;7.53;1.70;;;15.80;52.80;;;;;;5071957;28;20044;-72
2023/04/19 10:06:40;;;;;;;2.75;1.20;;;15.80;52.60;;;;;;5071851;28;20041;-72
2023/04/19 10:09:07;;;;;;;5.32;1.10;;;15.90;52.70;;;;;;5071824;28;20409;-73
2023/04/19 10:11:39;;;;;;;7.07;1.40;;;15.90;52.70;;;;;;5071711;28;20481;-72
2023/04/19 10:14:07;;;;;;;2.58;1.45;;;16.10;50.80;;;;;;5071773;28;20093;-72
2023/04/19 10:16:34;;;;;;;3.85;1.30;;;16.20;51.00;;;;;;5071722;28;20562;-72
2023/04/19 10:19:02;;;;;;;2.17;1.30;;;16.40;51.00;;;;;;5073232;28;20158;-72
2023/04/19 10:21:28;;;;;;;3.72;1.33;;;16.40;49.60;;;;;;5071638;28;20044;-72
2023/04/19 10:23:55;;;;;;;4.65;1.60;;;16.50;49.50;;;;;;5075476;28;20112;-72
2023/04/19 10:26:21;;;;;;;5.63;1.20;;;16.60;49.20;;;;;;5076057;28;20032;-72
2023/04/19 10:28:47;;;;;;;2.90;1.63;;;16.70;47.50;;;;;;5076017;28;20402;-72
2023/04/19 10:31:13;;;;;;;2.67;1.10;;;16.80;47.30;;;;;;5075622;28;20094;-72
2023/04/19 10:33:40;;;;;;;3.25;1.20;;;16.80;47.50;;;;;;5075925;28;20056;-72
2023/04/19 10:36:12;;;;;;;3.63;1.10;;;17.00;47.40;;;;;;5075835;28;20036;-72
2023/04/19 10:38:38;;;;;;;5.10;1.60;;;17.00;45.90;;;;;;5075574;28;20489;-72
2023/04/19 10:41:10;;;;;;;3.63;1.00;;;17.00;46.50;;;;;;5075671;28;20042;-72
2023/04/19 10:43:40;;;;;;;5.00;1.20;;;16.90;46.10;;;;;;5077284;28;20444;-72
2023/04/19 10:46:14;;;;;;;3.53;1.10;;;16.90;46.00;;;;;;5075708;28;20040;-72
2023/04/19 10:48:52;;;;;;;2.17;1.38;;;17.00;46.20;;;;;;5075610;28;20051;-72
2023/04/19 10:51:28;;;;;;;2.20;0.90;;;17.20;45.40;;;;;;5075266;28;20044;-72
2023/04/19 10:53:57;;;;;;;4.07;1.10;;;17.30;45.50;;;;;;5075255;28;20115;-72
2023/04/19 10:56:32;;;;;;;2.47;1.05;;;17.30;45.10;;;;;;5075215;28;20048;-72
2023/04/19 10:59:09;;;;;;;3.20;1.20;;;17.40;44.70;;;;;;5075271;28;20443;-72
2023/04/19 11:01:38;;;;;;;1.88;0.85;;;17.30;44.70;;;;;;5075280;28;20040;-72
2023/04/19 11:04:04;;;;;;;1.67;1.00;;;17.30;45.10;;;;;;5075007;28;20047;-72
2023/04/19 11:06:30;;;;;;;2.95;1.00;;;17.30;44.60;;;;;;5075453;28;20032;-72
2023/04/19 11:08:56;;;;;;;2.78;1.10;;;17.40;44.90;;;;;;5075245;28;20080;-72
2023/04/19 11:11:24;;;;;;;3.72;1.00;;;17.70;45.60;;;;;;5074925;28;20476;-72
2023/04/19 11:13:49;;;;;;;2.88;1.00;;;17.90;44.70;;;;;;5075113;28;20093;-72
2023/04/19 11:16:15;;;;;;;2.28;0.90;;;17.90;44.90;;;;;;5075084;28;20404;-72
2023/04/19 11:18:42;;;;;;;2.33;0.73;;;17.90;44.60;;;;;;5074849;28;20048;-72
2023/04/19 11:21:13;;;;;;;2.65;0.95;;;18.00;44.80;;;;;;5076172;28;20040;-72
2023/04/19 11:23:38;;;;;;;4.63;1.00;;;18.20;45.20;;;;;;5074932;28;20409;-72
2023/04/19 11:26:04;;;;;;;2.95;0.80;;;18.30;45.60;;;;;;5074709;28;20515;-72
2023/04/19 11:28:32;;;;;;;1.80;0.80;;;18.30;45.70;;;;;;5074904;28;20094;-72
2023/04/19 11:30:58;;;;;;;6.18;0.90;;;18.30;44.60;;;;;;5074747;28;20076;-71
2023/04/19 11:33:26;;;;;;;1.60;0.88;;;18.50;45.00;;;;;;5057223;28;20036;-71
2023/04/19 11:35:51;;;;;;;3.90;1.40;;;18.80;44.60;;;;;;5075532;28;20435;-72
2023/04/19 11:38:17;;;;;;;3.47;0.90;;;18.90;44.10;;;;;;5074701;28;20041;-72
2023/04/19 11:40:42;;;;;;;3.25;1.02;;;19.10;43.70;;;;;;5074680;28;20048;-72
2023/04/19 11:43:08;;;;;;;4.28;1.27;;;19.10;43.60;;;;;;5074294;28;20489;-72
2023/04/19 11:45:36;;;;;;;2.72;1.35;;;19.10;43.70;;;;;;5074322;28;20051;-72
2023/04/19 11:48:04;;;;;;;2.20;1.40;;;19.00;44.10;;;;;;5074370;28;20041;-72
2023/04/19 11:50:30;;;;;;;4.50;1.00;;;19.00;44.90;;;;;;5074281;28;20040;-72
2023/04/19 11:52:56;;;;;;;3.00;1.08;;;19.10;46.00;;;;;;5074191;28;20072;-72
2023/04/19 11:55:22;;;;;;;5.18;1.42;;;19.20;44.60;;;;;;5074211;28;20045;-72
2023/04/19 11:57:48;;;;;;;2.28;1.05;;;19.20;44.60;;;;;;5074342;28;20052;-72
2023/04/19 12:00:15;;;;;;;3.63;1.60;;;19.20;44.10;;;;;;5074058;28;20500;-72
2023/04/19 12:02:45;;;;;;;4.28;1.60;;;19.20;44.10;;;;;;5073922;28;20052;-71
2023/04/19 12:05:13;;;;;;;4.88;1.42;;;19.00;44.50;;;;;;5073929;28;20072;-71
2023/04/19 12:08:05;;;;;;;4.93;1.70;;;19.10;45.90;;;;;;5074224;28;20123;-72
2023/04/19 12:10:31;;;;;;;3.17;1.63;;;19.30;45.00;;;;;;5074203;28;20102;-72
2023/04/19 12:12:58;;;;;;;1.75;1.27;;;19.30;45.80;;;;;;5075035;28;20267;-71
2023/04/19 12:15:40;;;;;;;6.47;1.75;;;19.30;44.90;;;;;;5074079;28;20068;-71
2023/04/19 12:18:05;;;;;;;3.50;1.70;;;19.50;44.50;;;;;;5073854;28;20094;-72
2023/04/19 12:20:36;;;;;;;4.18;1.60;;;19.50;45.30;;;;;;5073633;28;20048;-72
2023/04/19 12:23:02;;;;;;;3.05;1.77;;;19.70;44.90;;;;;;5073908;28;20044;-71
2023/04/19 12:25:32;;;;;;;4.28;2.08;;;19.60;44.20;;;;;;5074876;28;20119;-72
2023/04/19 12:27:59;;;;;;;3.65;1.73;;;19.60;43.70;;;;;;5073480;28;20040;-72
2023/04/19 12:30:25;;;;;;;3.22;1.80;;;19.50;44.20;;;;;;5073458;28;20382;-72
2023/04/19 12:32:54;;;;;;;5.35;1.88;;;19.50;44.00;;;;;;5073326;28;20040;-71
2023/04/19 12:35:21;;;;;;;3.22;1.80;;;19.40;44.10;;;;;;5073559;28;20044;-71
2023/04/19 12:37:46;;;;;;;3.50;2.10;;;19.30;44.30;;;;;;5073270;28;20048;-72
2023/04/19 12:40:13;;;;;;;3.42;1.65;;;19.10;44.10;;;;;;5073505;28;20036;-72
2023/04/19 12:42:39;;;;;;;3.65;1.88;;;19.30;45.60;;;;;;5073353;28;20040;-72
2023/04/19 12:45:05;;;;;;;5.13;2.13;;;19.60;45.70;;;;;;5073035;28;20498;-72
2023/04/19 12:47:30;;;;;;;6.68;2.00;;;19.90;45.00;;;;;;5073118;28;20078;-72